createdAt,value
2022-08-21T00:00:44.228Z,2.70
2022-08-21T00:03:11.943Z,2.65
2022-08-21T00:05:45.956Z,2.92
2022-08-21T00:08:12.418Z,3.07
2022-08-21T00:10:40.818Z,3.10
2022-08-21T00:13:08.180Z,2.80
2022-08-21T00:15:37.112Z,3.17
2022-08-21T00:18:05.362Z,2.83
2022-08-21T00:20:32.634Z,2.83
2022-08-21T00:22:59.399Z,3.23
2022-08-21T00:25:26.435Z,3.25
2022-08-21T00:27:53.642Z,3.13
2022-08-21T00:30:23.015Z,3.03
2022-08-21T00:32:51.006Z,3.08
2022-08-21T00:35:19.707Z,3.80
2022-08-21T00:37:46.222Z,3.10
2022-08-21T00:40:16.933Z,3.42
2022-08-21T00:42:44.774Z,3.20
2022-08-21T00:45:20.266Z,3.60
2022-08-21T00:47:46.789Z,4.10
2022-08-21T00:50:21.936Z,3.27
2022-08-21T00:52:52.046Z,3.07
2022-08-21T00:55:20.851Z,3.43
2022-08-21T00:57:52.980Z,3.60
2022-08-21T01:00:26.218Z,3.40
2022-08-21T01:02:52.725Z,3.50
2022-08-21T01:05:19.237Z,3.30
2022-08-21T01:07:46.094Z,3.07
2022-08-21T01:10:20.579Z,3.30
2022-08-21T01:12:53.759Z,3.40
2022-08-21T01:15:21.445Z,3.95
2022-08-21T01:17:50.094Z,3.43
2022-08-21T01:20:17.434Z,3.53
2022-08-21T01:22:43.947Z,3.78
2022-08-21T01:25:12.713Z,3.70
2022-08-21T01:27:39.743Z,3.37
2022-08-21T01:30:16.826Z,3.80
2022-08-21T01:32:43.608Z,3.08
2022-08-21T01:35:12.182Z,3.60
2022-08-21T01:37:39.437Z,3.30
2022-08-21T01:40:07.556Z,3.40
2022-08-21T01:42:34.214Z,4.00
2022-08-21T01:45:00.876Z,3.90
2022-08-21T01:47:27.903Z,3.33
2022-08-21T01:49:54.439Z,3.73
2022-08-21T01:52:20.958Z,3.70
2022-08-21T01:54:51.132Z,4.27
2022-08-21T01:57:26.315Z,3.83
2022-08-21T01:59:53.850Z,4.33
2022-08-21T02:02:20.448Z,3.90
2022-08-21T02:04:46.889Z,3.73
2022-08-21T02:07:13.443Z,3.63
2022-08-21T02:09:43.045Z,3.53
2022-08-21T02:12:11.482Z,3.70
2022-08-21T02:14:38.385Z,3.73
2022-08-21T02:17:09.025Z,3.73
2022-08-21T02:23:27.210Z,3.23
2022-08-21T02:25:58.240Z,3.53
2022-08-21T02:28:24.731Z,3.50
2022-08-21T02:30:53.264Z,4.17
2022-08-21T02:33:20.001Z,3.67
2022-08-21T02:35:48.435Z,3.60
2022-08-21T02:38:21.566Z,3.43
2022-08-21T02:40:51.155Z,3.90
2022-08-21T02:43:19.589Z,3.50
2022-08-21T02:45:47.384Z,4.13
2022-08-21T02:48:17.359Z,3.80
2022-08-21T02:50:49.486Z,4.33
2022-08-21T02:53:17.608Z,4.10
2022-08-21T02:55:49.495Z,3.63
2022-08-21T02:58:20.673Z,4.00
2022-08-21T03:00:47.726Z,3.87
2022-08-21T03:03:15.382Z,3.80
2022-08-21T03:05:43.586Z,3.50
2022-08-21T03:08:12.322Z,4.27
2022-08-21T03:10:40.852Z,3.80
2022-08-21T03:13:08.252Z,4.10
2022-08-21T03:15:35.190Z,3.80
2022-08-21T03:18:02.097Z,3.73
2022-08-21T03:20:29.397Z,3.90
2022-08-21T03:22:56.495Z,3.53
2022-08-21T03:25:33.762Z,3.90
2022-08-21T03:28:12.787Z,3.97
2022-08-21T03:30:41.082Z,4.20
2022-08-21T03:33:07.544Z,3.70
2022-08-21T03:35:34.193Z,4.03
2022-08-21T03:38:00.636Z,3.57
2022-08-21T03:40:27.203Z,4.20
2022-08-21T03:42:54.036Z,3.90
2022-08-21T03:45:21.077Z,4.43
2022-08-21T03:47:56.797Z,3.70
2022-08-21T03:50:25.178Z,3.90
2022-08-21T03:52:51.705Z,4.10
2022-08-21T03:55:18.795Z,4.20
2022-08-21T03:57:45.413Z,3.77
2022-08-21T04:00:14.260Z,3.80
2022-08-21T04:02:41.201Z,3.90
2022-08-21T04:05:08.598Z,4.63
2022-08-21T04:07:35.229Z,4.50
2022-08-21T04:10:01.728Z,4.07
2022-08-21T04:12:28.230Z,3.70
2022-08-21T04:14:54.720Z,4.50
2022-08-21T04:17:21.178Z,4.00
2022-08-21T04:19:51.790Z,4.27
2022-08-21T04:22:20.219Z,4.50
2022-08-21T04:24:46.713Z,4.43
2022-08-21T04:27:13.167Z,4.27
2022-08-21T04:29:40.253Z,4.20
2022-08-21T04:32:07.315Z,4.20
2022-08-21T04:34:34.005Z,4.20
2022-08-21T04:37:00.410Z,4.10
2022-08-21T04:39:29.806Z,3.90
2022-08-21T04:41:56.514Z,4.20
2022-08-21T04:44:22.936Z,4.53
2022-08-21T04:46:49.493Z,4.00
2022-08-21T04:49:15.965Z,4.37
2022-08-21T04:51:42.499Z,4.60
2022-08-21T04:54:17.996Z,4.77
2022-08-21T04:57:00.537Z,4.13
2022-08-21T04:59:38.971Z,4.47
2022-08-21T05:02:07.052Z,4.43
2022-08-21T05:04:37.786Z,4.63
2022-08-21T05:07:08.102Z,4.77
2022-08-21T05:09:35.516Z,4.30
2022-08-21T05:12:03.352Z,5.17
2022-08-21T05:14:29.898Z,4.70
2022-08-21T05:16:56.654Z,4.73
2022-08-21T05:19:24.406Z,4.83
2022-08-21T05:21:51.102Z,4.43
2022-08-21T05:24:18.707Z,4.30
2022-08-21T05:26:46.640Z,4.97
2022-08-21T05:29:16.362Z,4.60
2022-08-21T05:31:43.559Z,4.57
2022-08-21T05:34:09.978Z,4.87
2022-08-21T05:36:36.986Z,4.67
2022-08-21T05:39:04.004Z,5.03
2022-08-21T05:41:30.456Z,4.00
2022-08-21T05:44:00.745Z,4.57
2022-08-21T05:46:27.221Z,4.13
2022-08-21T05:48:53.652Z,4.23
2022-08-21T05:51:20.198Z,4.13
2022-08-21T05:53:47.180Z,4.20
2022-08-21T05:56:14.626Z,4.23
2022-08-21T05:58:41.070Z,4.20
2022-08-21T06:01:08.272Z,3.67
2022-08-21T06:03:37.808Z,3.47
2022-08-21T06:06:04.631Z,3.93
2022-08-21T06:08:32.137Z,3.72
2022-08-21T06:11:00.971Z,3.75
2022-08-21T06:13:27.931Z,3.45
2022-08-21T06:16:07.225Z,4.05
2022-08-21T06:18:34.680Z,3.80
2022-08-21T06:21:01.264Z,3.50
2022-08-21T06:23:31.675Z,3.60
2022-08-21T06:25:59.987Z,3.60
2022-08-21T06:28:26.485Z,3.55
2022-08-21T06:30:53.193Z,3.22
2022-08-21T06:33:20.170Z,3.20
2022-08-21T06:35:46.640Z,3.55
2022-08-21T06:38:13.165Z,3.13
2022-08-21T06:40:43.742Z,3.33
2022-08-21T06:43:15.637Z,3.33
2022-08-21T06:45:43.140Z,3.30
2022-08-21T06:48:09.680Z,3.28
2022-08-21T06:50:36.418Z,3.40
2022-08-21T06:53:08.358Z,3.38
2022-08-21T06:55:35.513Z,3.22
2022-08-21T06:58:02.082Z,3.28
2022-08-21T07:00:28.721Z,2.80
2022-08-21T07:02:55.181Z,3.33
2022-08-21T07:05:22.465Z,3.25
2022-08-21T07:07:48.968Z,3.22
2022-08-21T07:10:22.369Z,2.92
2022-08-21T07:13:00.074Z,2.97
2022-08-21T07:15:29.251Z,3.13
2022-08-21T07:17:57.983Z,2.78
2022-08-21T07:20:24.470Z,3.20
2022-08-21T07:22:51.525Z,2.85
2022-08-21T07:25:18.012Z,2.65
2022-08-21T07:27:44.534Z,2.70
2022-08-21T07:30:11.213Z,3.08
2022-08-21T07:32:37.750Z,2.97
2022-08-21T07:35:04.601Z,2.88
2022-08-21T07:37:31.199Z,2.90
2022-08-21T07:39:57.812Z,2.80
2022-08-21T07:42:24.341Z,3.28
2022-08-21T07:44:53.136Z,2.78
2022-08-21T07:47:41.579Z,3.35
2022-08-21T07:50:13.827Z,3.08
2022-08-21T07:52:41.762Z,2.92
2022-08-21T07:55:11.863Z,2.90
2022-08-21T07:57:38.667Z,2.67
2022-08-21T08:00:07.855Z,3.30
2022-08-21T08:02:39.400Z,2.92
2022-08-21T08:05:08.650Z,2.78
2022-08-21T08:07:35.337Z,3.60
2022-08-21T08:10:03.321Z,3.15
2022-08-21T08:12:30.539Z,2.83
2022-08-21T08:14:58.705Z,3.10
2022-08-21T08:17:29.065Z,2.80
2022-08-21T08:19:56.265Z,2.38
2022-08-21T08:22:27.203Z,2.67
2022-08-21T08:24:54.853Z,2.70
2022-08-21T08:27:22.067Z,2.70
2022-08-21T08:29:49.459Z,2.88
2022-08-21T08:32:15.948Z,2.55
2022-08-21T08:34:42.402Z,2.40
2022-08-21T08:37:10.682Z,2.72
2022-08-21T08:39:37.300Z,2.72
2022-08-21T08:42:32.805Z,2.97
2022-08-21T08:45:14.074Z,2.33
2022-08-21T08:47:45.578Z,2.30
2022-08-21T08:50:22.633Z,2.30
2022-08-21T08:52:58.772Z,2.42
2022-08-21T08:55:33.027Z,2.67
2022-08-21T08:57:59.662Z,2.40
2022-08-21T09:00:26.303Z,2.60
2022-08-21T09:02:56.079Z,2.78
2022-08-21T09:05:29.621Z,2.80
2022-08-21T09:08:05.234Z,2.60
2022-08-21T09:10:54.601Z,2.65
2022-08-21T09:13:38.705Z,2.80
2022-08-21T09:16:39.475Z,2.78
2022-08-21T09:19:24.714Z,2.15
2022-08-21T09:22:08.300Z,2.70
2022-08-21T09:24:51.805Z,2.80
2022-08-21T09:27:19.994Z,2.30
2022-08-21T09:29:52.806Z,2.35
2022-08-21T09:32:23.671Z,3.10
2022-08-21T09:35:09.600Z,2.30
2022-08-21T09:37:46.125Z,2.05
2022-08-21T09:40:32.831Z,2.22
2022-08-21T09:43:14.461Z,2.63
2022-08-21T09:45:43.422Z,2.75
2022-08-21T09:48:18.841Z,1.90
2022-08-21T09:50:46.172Z,2.05
2022-08-21T09:53:22.794Z,2.50
2022-08-21T09:56:24.311Z,2.67
2022-08-21T09:58:52.579Z,2.28
2022-08-21T10:01:22.774Z,2.15
2022-08-21T10:04:02.655Z,2.03
2022-08-21T10:06:29.688Z,2.33
2022-08-21T10:09:21.104Z,2.25
2022-08-21T10:12:24.165Z,2.05
2022-08-21T10:15:20.218Z,2.20
2022-08-21T10:18:08.230Z,2.30
2022-08-21T10:20:56.937Z,1.80
2022-08-21T10:23:39.863Z,2.22
2022-08-21T10:26:13.847Z,2.17
2022-08-21T10:28:44.154Z,2.22
2022-08-21T10:31:27.567Z,1.67
2022-08-21T10:34:07.017Z,1.90
2022-08-21T10:36:44.406Z,1.83
2022-08-21T10:39:36.062Z,1.52
2022-08-21T10:42:25.979Z,1.70
2022-08-21T10:45:19.750Z,1.63
2022-08-21T10:47:57.851Z,1.92
2022-08-21T10:50:36.650Z,1.70
2022-08-21T10:53:30.198Z,1.48
2022-08-21T10:56:29.457Z,1.95
2022-08-21T10:59:24.566Z,1.65
2022-08-21T11:01:58.191Z,1.80
2022-08-21T11:04:54.727Z,1.73
2022-08-21T11:07:36.299Z,1.90
2022-08-21T11:10:17.307Z,1.55
2022-08-21T11:12:53.025Z,2.22
2022-08-21T11:15:46.333Z,1.60
2022-08-21T11:18:31.850Z,2.05
2022-08-21T11:21:11.384Z,2.05
2022-08-21T11:24:04.655Z,2.33
2022-08-21T11:26:42.190Z,1.90
2022-08-21T11:29:15.025Z,1.95
2022-08-21T11:32:02.106Z,2.03
2022-08-21T11:34:58.374Z,1.75
2022-08-21T11:37:56.849Z,1.75
2022-08-21T11:40:45.426Z,1.88
2022-08-21T11:43:39.059Z,1.83
2022-08-21T11:46:11.511Z,2.17
2022-08-21T11:48:50.161Z,2.05
2022-08-21T11:51:26.871Z,2.05
2022-08-21T11:54:07.354Z,1.90
2022-08-21T11:56:39.970Z,1.65
2022-08-21T11:59:12.009Z,1.92
2022-08-21T12:01:45.519Z,1.90
2022-08-21T12:04:32.170Z,2.55
2022-08-21T12:07:11.718Z,1.92
2022-08-21T12:09:38.279Z,2.42
2022-08-21T12:12:12.456Z,2.30
2022-08-21T12:14:43.451Z,2.30
2022-08-21T12:17:22.215Z,2.20
2022-08-21T12:20:19.334Z,2.58
2022-08-21T12:22:53.513Z,2.40
2022-08-21T12:25:22.645Z,2.22
2022-08-21T12:27:53.674Z,2.40
2022-08-21T12:30:44.597Z,2.50
2022-08-21T12:33:31.761Z,2.28
2022-08-21T12:36:15.065Z,2.55
2022-08-21T12:38:51.985Z,2.33
2022-08-21T12:41:33.776Z,2.60
2022-08-21T12:44:06.538Z,2.20
2022-08-21T12:46:41.138Z,2.13
2022-08-21T12:49:26.943Z,2.30
2022-08-21T12:52:02.731Z,2.17
2022-08-21T12:54:32.067Z,2.45
2022-08-21T12:57:05.227Z,2.40
2022-08-21T12:59:32.658Z,2.55
2022-08-21T13:02:13.415Z,2.40
2022-08-21T13:04:42.124Z,2.47
2022-08-21T13:07:13.170Z,2.00
2022-08-21T13:09:51.570Z,2.40
2022-08-21T13:12:20.861Z,2.22
2022-08-21T13:14:48.339Z,2.20
2022-08-21T13:17:25.581Z,2.40
2022-08-21T13:20:02.080Z,2.50
2022-08-21T13:22:33.560Z,2.20
2022-08-21T13:25:06.489Z,2.40
2022-08-21T13:27:33.511Z,2.70
2022-08-21T13:30:11.451Z,2.53
2022-08-21T13:32:52.658Z,2.30
2022-08-21T13:35:22.328Z,2.13
2022-08-21T13:37:52.657Z,2.70
2022-08-21T13:40:31.262Z,2.08
2022-08-21T13:42:58.783Z,2.30
2022-08-21T13:45:32.151Z,2.38
2022-08-21T13:48:06.252Z,2.17
2022-08-21T13:50:36.005Z,1.80
2022-08-21T13:53:08.295Z,2.75
2022-08-21T13:55:38.442Z,2.00
2022-08-21T13:58:05.800Z,2.42
2022-08-21T14:00:36.319Z,2.28
2022-08-21T14:03:10.169Z,2.55
2022-08-21T14:05:44.224Z,1.92
2022-08-21T14:08:21.346Z,2.30
2022-08-21T14:10:57.411Z,2.20
2022-08-21T14:13:42.614Z,2.45
2022-08-21T14:16:41.325Z,2.22
2022-08-21T14:19:23.113Z,2.55
2022-08-21T14:21:50.008Z,2.28
2022-08-21T14:24:22.429Z,2.15
2022-08-21T14:26:56.448Z,2.38
2022-08-21T14:29:32.634Z,2.28
2022-08-21T14:32:21.908Z,2.28
2022-08-21T14:34:51.849Z,2.20
2022-08-21T14:37:18.652Z,2.35
2022-08-21T14:39:45.811Z,2.22
2022-08-21T14:42:13.346Z,2.50
2022-08-21T14:44:40.377Z,2.28
2022-08-21T14:47:06.878Z,2.03
2022-08-21T14:49:33.351Z,2.28
2022-08-21T14:51:59.888Z,2.42
2022-08-21T14:54:32.194Z,2.30
2022-08-21T14:57:06.588Z,2.28
2022-08-21T14:59:34.085Z,2.38
2022-08-21T15:02:01.386Z,2.17
2022-08-21T15:04:27.838Z,2.08
2022-08-21T15:06:54.444Z,2.10
2022-08-21T15:09:20.882Z,2.60
2022-08-21T15:11:47.487Z,2.40
2022-08-21T15:14:21.053Z,2.13
2022-08-21T15:16:48.946Z,2.35
2022-08-21T15:19:15.519Z,2.15
2022-08-21T15:21:42.090Z,2.00
2022-08-21T15:24:08.570Z,2.20
2022-08-21T15:26:36.582Z,2.13
2022-08-21T15:29:06.783Z,2.00
2022-08-21T15:31:33.946Z,2.00
2022-08-21T15:34:00.375Z,2.10
2022-08-21T15:36:26.906Z,2.25
2022-08-21T15:38:53.442Z,2.10
2022-08-21T15:41:20.077Z,2.20
2022-08-21T15:43:50.893Z,2.47
2022-08-21T15:46:19.604Z,1.95
2022-08-21T15:48:47.105Z,2.10
2022-08-21T15:51:15.162Z,2.20
2022-08-21T15:53:41.734Z,2.30
2022-08-21T15:56:21.077Z,2.50
2022-08-21T15:58:47.618Z,2.47
2022-08-21T16:01:14.178Z,2.72
2022-08-21T16:03:40.685Z,2.05
2022-08-21T16:06:09.451Z,2.35
2022-08-21T16:08:35.871Z,2.50
2022-08-21T16:11:02.552Z,2.33
2022-08-21T16:13:37.353Z,2.40
2022-08-21T16:16:04.939Z,1.98
2022-08-21T16:18:31.858Z,1.88
2022-08-21T16:20:58.717Z,2.00
2022-08-21T16:23:25.206Z,2.47
2022-08-21T16:25:51.763Z,2.20
2022-08-21T16:28:21.642Z,2.42
2022-08-21T16:30:49.855Z,2.40
2022-08-21T16:33:27.818Z,1.90
2022-08-21T16:35:54.437Z,2.10
2022-08-21T16:38:21.061Z,2.10
2022-08-21T16:40:47.705Z,2.50
2022-08-21T16:43:14.945Z,2.40
2022-08-21T16:45:43.147Z,2.05
2022-08-21T16:48:10.080Z,2.05
2022-08-21T16:50:37.904Z,2.20
2022-08-21T16:53:04.714Z,2.30
2022-08-21T16:55:31.480Z,2.00
2022-08-21T16:57:58.044Z,2.08
2022-08-21T17:00:24.449Z,1.90
2022-08-21T17:02:54.787Z,2.38
2022-08-21T17:05:21.296Z,2.20
2022-08-21T17:07:47.892Z,1.98
2022-08-21T17:10:16.194Z,2.13
2022-08-21T17:12:47.032Z,2.08
2022-08-21T17:15:29.442Z,2.10
2022-08-21T17:17:56.550Z,2.00
2022-08-21T17:20:23.627Z,2.10
2022-08-21T17:22:50.218Z,2.35
2022-08-21T17:25:16.767Z,2.33
2022-08-21T17:27:44.421Z,2.28
2022-08-21T17:30:12.416Z,1.92
2022-08-21T17:32:39.023Z,2.28
2022-08-21T17:35:05.995Z,2.08
2022-08-21T17:37:32.668Z,1.90
2022-08-21T17:39:59.879Z,1.92
2022-08-21T17:42:27.267Z,2.70
2022-08-21T17:44:53.757Z,2.30
2022-08-21T17:47:20.183Z,2.10
2022-08-21T17:49:46.691Z,2.20
2022-08-21T17:52:13.208Z,1.85
2022-08-21T17:54:41.053Z,2.45
2022-08-21T17:57:08.717Z,2.47
2022-08-21T17:59:35.186Z,2.30
2022-08-21T18:02:03.686Z,2.38
2022-08-21T18:04:31.262Z,2.35
2022-08-21T18:06:58.034Z,2.10
2022-08-21T18:09:28.032Z,2.00
2022-08-21T18:11:57.242Z,2.00
2022-08-21T18:14:30.871Z,2.40
2022-08-21T18:16:57.599Z,2.17
2022-08-21T18:19:26.030Z,2.30
2022-08-21T18:21:54.490Z,2.42
2022-08-21T18:24:22.274Z,2.17
2022-08-21T18:26:49.567Z,2.25
2022-08-21T18:29:19.586Z,2.03
2022-08-21T18:31:47.298Z,1.90
2022-08-21T18:34:24.188Z,2.17
2022-08-21T18:36:52.054Z,2.38
2022-08-21T18:39:36.011Z,2.17
2022-08-21T18:42:07.879Z,2.13
2022-08-21T18:44:34.678Z,2.50
2022-08-21T18:47:06.240Z,2.90
2022-08-21T18:49:33.159Z,2.83
2022-08-21T18:52:00.715Z,2.63
2022-08-21T18:54:30.184Z,2.38
2022-08-21T18:56:56.616Z,2.60
2022-08-21T18:59:26.723Z,2.63
2022-08-21T19:01:53.866Z,2.45
2022-08-21T19:11:23.480Z,2.60
2022-08-21T19:13:53.109Z,2.95
2022-08-21T19:16:21.648Z,2.42
2022-08-21T19:22:56.333Z,2.60
2022-08-21T19:25:33.268Z,2.30
2022-08-21T19:28:10.897Z,2.55
2022-08-21T19:30:53.368Z,2.65
2022-08-21T19:33:27.463Z,2.53
2022-08-21T19:35:54.136Z,2.40
2022-08-21T19:38:21.413Z,2.70
2022-08-21T19:40:48.858Z,2.90
2022-08-21T19:43:15.867Z,4.28
2022-08-21T19:45:49.408Z,3.08
2022-08-21T19:48:16.527Z,2.88
2022-08-21T19:50:45.809Z,2.72
2022-08-21T19:53:12.435Z,2.60
2022-08-21T19:55:43.434Z,2.90
2022-08-21T19:58:31.988Z,2.72
2022-08-21T20:00:58.951Z,2.58
2022-08-21T20:03:28.649Z,2.85
2022-08-21T20:05:57.695Z,2.97
2022-08-21T20:08:27.981Z,2.80
2022-08-21T20:10:57.491Z,2.72
2022-08-21T20:13:25.754Z,2.63
2022-08-21T20:15:53.832Z,2.60
2022-08-21T20:18:26.902Z,2.70
2022-08-21T20:20:54.396Z,2.60
2022-08-21T20:23:29.862Z,3.13
2022-08-21T20:26:00.744Z,2.67
2022-08-21T20:28:29.343Z,2.42
2022-08-21T20:30:57.050Z,2.90
2022-08-21T20:33:24.220Z,3.10
2022-08-21T20:35:54.055Z,2.45
2022-08-21T20:38:21.685Z,2.85
2022-08-21T20:40:51.067Z,2.90
2022-08-21T20:43:20.028Z,2.78
2022-08-21T20:45:47.429Z,2.70
2022-08-21T20:48:30.985Z,3.00
2022-08-21T20:51:06.574Z,3.05
2022-08-21T20:53:42.838Z,2.90
2022-08-21T20:56:29.941Z,2.60
2022-08-21T20:59:30.021Z,2.60
2022-08-21T21:02:21.987Z,2.83
2022-08-21T21:05:01.887Z,2.80
2022-08-21T21:07:35.607Z,3.13
2022-08-21T21:10:05.976Z,2.58
2022-08-21T21:15:29.861Z,3.35
2022-08-21T21:18:05.184Z,3.20
2022-08-21T21:20:51.538Z,3.17
2022-08-21T21:23:51.807Z,2.83
2022-08-21T21:26:23.175Z,2.72
2022-08-21T21:29:16.909Z,2.92
2022-08-21T21:31:43.436Z,3.20
2022-08-21T21:37:05.137Z,2.78
2022-08-21T21:39:54.276Z,2.40
2022-08-21T21:42:38.372Z,3.30
2022-08-21T21:45:07.590Z,3.47
2022-08-21T21:47:53.258Z,3.00
2022-08-21T21:50:50.951Z,3.03
2022-08-21T21:53:20.769Z,3.20
2022-08-21T21:56:00.366Z,3.20
2022-08-21T21:59:09.946Z,3.42
2022-08-21T22:01:45.762Z,3.30
2022-08-21T22:04:35.417Z,2.90
2022-08-21T22:07:25.126Z,3.08
2022-08-21T22:09:59.303Z,3.55
2022-08-21T22:12:32.748Z,3.03
2022-08-21T22:14:59.257Z,3.15
2022-08-21T22:17:25.706Z,3.10
2022-08-21T22:19:54.395Z,3.58
2022-08-21T22:22:25.429Z,3.63
2022-08-21T22:24:58.256Z,3.20
2022-08-21T22:27:35.203Z,2.95
2022-08-21T22:30:07.319Z,3.25
2022-08-21T22:32:45.804Z,3.70
2022-08-21T22:35:19.627Z,3.15
2022-08-21T22:37:53.401Z,3.58
2022-08-21T22:40:27.335Z,3.40
2022-08-21T22:43:09.732Z,3.65
2022-08-21T22:45:57.039Z,3.55
2022-08-21T22:48:27.322Z,3.60
2022-08-21T22:51:02.192Z,3.60
2022-08-21T22:53:31.495Z,3.50
2022-08-21T22:56:00.461Z,3.70
2022-08-21T22:58:56.368Z,3.50
2022-08-21T23:01:22.698Z,3.40
2022-08-21T23:03:57.883Z,3.83
2022-08-21T23:06:49.297Z,3.22
2022-08-21T23:09:31.902Z,3.55
2022-08-21T23:12:01.939Z,3.55
2022-08-21T23:14:48.064Z,3.70
2022-08-21T23:17:38.641Z,3.65
2022-08-21T23:20:37.967Z,3.40
2022-08-21T23:23:20.028Z,3.60
2022-08-21T23:26:08.629Z,3.42
2022-08-21T23:28:59.342Z,3.20
2022-08-21T23:31:35.628Z,3.30
2022-08-21T23:34:15.945Z,3.17
2022-08-21T23:37:48.386Z,3.00
2022-08-21T23:40:34.859Z,3.20
2022-08-21T23:43:30.222Z,3.70
2022-08-21T23:46:33.801Z,3.47
2022-08-21T23:49:24.312Z,3.50
2022-08-21T23:52:00.028Z,3.45
2022-08-21T23:54:43.440Z,3.97
2022-08-21T23:57:35.776Z,3.72
